sensor_id;sensor_type;location;lat;lon;timestamp;temperature;humidity
4207;DHT22;2117;47.972;7.830;2023-02-15T02:33:40;-0.40;99.90
4207;DHT22;2117;47.972;7.830;2023-02-15T02:44:46;-0.50;99.90
4207;DHT22;2117;47.972;7.830;2023-02-15T02:47:21;-0.50;99.90
4207;DHT22;2117;47.972;7.830;2023-02-15T02:49:52;-0.50;99.90
4207;DHT22;2117;47.972;7.830;2023-02-15T02:52:38;-0.40;99.90
4207;DHT22;2117;47.972;7.830;2023-02-15T02:55:16;-0.40;99.90
4207;DHT22;2117;47.972;7.830;2023-02-15T02:57:55;-0.50;99.90
4207;DHT22;2117;47.972;7.830;2023-02-15T03:00:25;-0.50;99.90
4207;DHT22;2117;47.972;7.830;2023-02-15T03:02:55;-0.60;99.90
4207;DHT22;2117;47.972;7.830;2023-02-15T03:05:26;-0.50;99.90
4207;DHT22;2117;47.972;7.830;2023-02-15T03:07:54;-0.40;99.90
4207;DHT22;2117;47.972;7.830;2023-02-15T03:10:23;-0.40;99.90
4207;DHT22;2117;47.972;7.830;2023-02-15T03:12:50;-0.40;99.90
4207;DHT22;2117;47.972;7.830;2023-02-15T03:15:26;-0.30;99.90
4207;DHT22;2117;47.972;7.830;2023-02-15T03:17:56;-0.30;99.90
4207;DHT22;2117;47.972;7.830;2023-02-15T03:20:30;-0.50;99.90
4207;DHT22;2117;47.972;7.830;2023-02-15T03:22:59;-0.40;99.90
4207;DHT22;2117;47.972;7.830;2023-02-15T03:25:59;-0.40;99.90
4207;DHT22;2117;47.972;7.830;2023-02-15T03:28:30;-0.50;99.90
4207;DHT22;2117;47.972;7.830;2023-02-15T03:31:00;-0.50;99.90
4207;DHT22;2117;47.972;7.830;2023-02-15T03:33:28;-0.50;99.90
4207;DHT22;2117;47.972;7.830;2023-02-15T03:39:07;-0.50;99.90
4207;DHT22;2117;47.972;7.830;2023-02-15T03:41:40;-0.60;99.90
4207;DHT22;2117;47.972;7.830;2023-02-15T03:44:24;-0.60;99.90
4207;DHT22;2117;47.972;7.830;2023-02-15T03:46:59;-0.60;99.90
4207;DHT22;2117;47.972;7.830;2023-02-15T03:49:54;-0.60;99.90
4207;DHT22;2117;47.972;7.830;2023-02-15T03:52:21;-0.70;99.90
4207;DHT22;2117;47.972;7.830;2023-02-15T03:54:50;-0.70;99.90
4207;DHT22;2117;47.972;7.830;2023-02-15T03:57:27;-0.70;99.90
4207;DHT22;2117;47.972;7.830;2023-02-15T04:00:22;-0.70;99.90
4207;DHT22;2117;47.972;7.830;2023-02-15T04:05:42;-0.90;99.90
4207;DHT22;2117;47.972;7.830;2023-02-15T04:08:08;-0.90;99.90
4207;DHT22;2117;47.972;7.830;2023-02-15T04:10:34;-0.90;99.90
4207;DHT22;2117;47.972;7.830;2023-02-15T04:13:23;-0.80;99.90
4207;DHT22;2117;47.972;7.830;2023-02-15T04:15:49;-0.80;99.90
4207;DHT22;2117;47.972;7.830;2023-02-15T04:18:38;-0.80;99.90
4207;DHT22;2117;47.972;7.830;2023-02-15T04:21:24;-0.80;99.90
4207;DHT22;2117;47.972;7.830;2023-02-15T04:24:09;-0.70;99.90
4207;DHT22;2117;47.972;7.830;2023-02-15T04:26:53;-0.70;99.90
4207;DHT22;2117;47.972;7.830;2023-02-15T04:29:20;-0.70;99.90
4207;DHT22;2117;47.972;7.830;2023-02-15T04:31:46;-0.70;99.90
4207;DHT22;2117;47.972;7.830;2023-02-15T04:34:12;-0.70;99.90
4207;DHT22;2117;47.972;7.830;2023-02-15T04:36:39;-0.70;99.90
4207;DHT22;2117;47.972;7.830;2023-02-15T04:39:05;-0.80;99.90
4207;DHT22;2117;47.972;7.830;2023-02-15T04:41:31;-0.70;99.90
4207;DHT22;2117;47.972;7.830;2023-02-15T04:43:57;-0.70;99.90
4207;DHT22;2117;47.972;7.830;2023-02-15T04:46:23;-0.80;99.90
4207;DHT22;2117;47.972;7.830;2023-02-15T04:48:48;-0.80;99.90
4207;DHT22;2117;47.972;7.830;2023-02-15T04:51:14;-0.80;99.90
4207;DHT22;2117;47.972;7.830;2023-02-15T04:53:39;-0.80;99.90
4207;DHT22;2117;47.972;7.830;2023-02-15T04:56:05;-0.90;99.90
4207;DHT22;2117;47.972;7.830;2023-02-15T04:58:31;-0.90;99.90
4207;DHT22;2117;47.972;7.830;2023-02-15T05:00:57;-1.00;99.90
4207;DHT22;2117;47.972;7.830;2023-02-15T05:03:23;-0.90;99.90
4207;DHT22;2117;47.972;7.830;2023-02-15T05:05:49;-0.90;99.90
4207;DHT22;2117;47.972;7.830;2023-02-15T05:08:14;-0.90;99.90
4207;DHT22;2117;47.972;7.830;2023-02-15T05:10:40;-1.00;99.90
4207;DHT22;2117;47.972;7.830;2023-02-15T05:13:05;-1.00;99.90
4207;DHT22;2117;47.972;7.830;2023-02-15T05:15:31;-1.00;99.90
4207;DHT22;2117;47.972;7.830;2023-02-15T05:17:56;-1.10;99.90
4207;DHT22;2117;47.972;7.830;2023-02-15T05:20:22;-1.00;99.90
4207;DHT22;2117;47.972;7.830;2023-02-15T05:22:48;-1.00;99.90
4207;DHT22;2117;47.972;7.830;2023-02-15T05:25:14;-1.00;99.90
4207;DHT22;2117;47.972;7.830;2023-02-15T05:27:58;-1.00;99.90
4207;DHT22;2117;47.972;7.830;2023-02-15T05:30:42;-1.00;99.90
4207;DHT22;2117;47.972;7.830;2023-02-15T05:33:08;-1.00;99.90
4207;DHT22;2117;47.972;7.830;2023-02-15T05:35:34;-1.10;99.90
4207;DHT22;2117;47.972;7.830;2023-02-15T05:38:00;-1.20;99.90
4207;DHT22;2117;47.972;7.830;2023-02-15T05:40:26;-1.20;99.90
4207;DHT22;2117;47.972;7.830;2023-02-15T05:42:52;-1.20;99.90
4207;DHT22;2117;47.972;7.830;2023-02-15T05:45:17;-1.00;99.90
4207;DHT22;2117;47.972;7.830;2023-02-15T05:47:43;-1.00;99.90
4207;DHT22;2117;47.972;7.830;2023-02-15T05:50:09;-1.00;99.90
4207;DHT22;2117;47.972;7.830;2023-02-15T05:52:36;-1.00;99.90
4207;DHT22;2117;47.972;7.830;2023-02-15T05:55:02;-1.10;99.90
4207;DHT22;2117;47.972;7.830;2023-02-15T05:57:29;-1.00;99.90
4207;DHT22;2117;47.972;7.830;2023-02-15T05:59:55;-1.00;99.90
4207;DHT22;2117;47.972;7.830;2023-02-15T06:02:21;-1.00;99.90
4207;DHT22;2117;47.972;7.830;2023-02-15T06:04:47;-1.00;99.90
4207;DHT22;2117;47.972;7.830;2023-02-15T06:07:12;-1.00;99.90
4207;DHT22;2117;47.972;7.830;2023-02-15T06:09:38;-1.00;99.90
4207;DHT22;2117;47.972;7.830;2023-02-15T06:12:03;-1.00;99.90
4207;DHT22;2117;47.972;7.830;2023-02-15T06:14:29;-1.10;99.90
4207;DHT22;2117;47.972;7.830;2023-02-15T06:16:54;-1.10;99.90
4207;DHT22;2117;47.972;7.830;2023-02-15T06:19:20;-1.20;99.90
4207;DHT22;2117;47.972;7.830;2023-02-15T06:21:46;-1.10;99.90
4207;DHT22;2117;47.972;7.830;2023-02-15T06:24:12;-1.20;99.90
4207;DHT22;2117;47.972;7.830;2023-02-15T06:26:37;-1.10;99.90
4207;DHT22;2117;47.972;7.830;2023-02-15T06:29:03;-1.20;99.90
4207;DHT22;2117;47.972;7.830;2023-02-15T06:31:28;-1.20;99.90
4207;DHT22;2117;47.972;7.830;2023-02-15T06:33:54;-1.20;99.90
4207;DHT22;2117;47.972;7.830;2023-02-15T06:36:27;-1.20;99.90
4207;DHT22;2117;47.972;7.830;2023-02-15T06:38:53;-1.10;99.90
4207;DHT22;2117;47.972;7.830;2023-02-15T06:41:18;-1.10;99.90
4207;DHT22;2117;47.972;7.830;2023-02-15T06:43:44;-1.20;99.90
4207;DHT22;2117;47.972;7.830;2023-02-15T06:46:09;-1.20;99.90
4207;DHT22;2117;47.972;7.830;2023-02-15T06:48:35;-1.20;99.90
4207;DHT22;2117;47.972;7.830;2023-02-15T06:51:00;-1.20;99.90
4207;DHT22;2117;47.972;7.830;2023-02-15T06:53:26;-1.30;99.90
4207;DHT22;2117;47.972;7.830;2023-02-15T06:55:52;-1.30;99.90
4207;DHT22;2117;47.972;7.830;2023-02-15T06:58:17;-1.20;99.90
4207;DHT22;2117;47.972;7.830;2023-02-15T07:00:43;-1.20;99.90
4207;DHT22;2117;47.972;7.830;2023-02-15T07:03:08;-1.20;99.90
4207;DHT22;2117;47.972;7.830;2023-02-15T07:05:34;-1.20;99.90
4207;DHT22;2117;47.972;7.830;2023-02-15T07:08:00;-1.30;99.90
4207;DHT22;2117;47.972;7.830;2023-02-15T07:10:26;-1.30;99.90
4207;DHT22;2117;47.972;7.830;2023-02-15T07:12:52;-1.30;99.90
4207;DHT22;2117;47.972;7.830;2023-02-15T07:15:19;-1.30;99.90
4207;DHT22;2117;47.972;7.830;2023-02-15T07:17:46;-1.40;99.90
4207;DHT22;2117;47.972;7.830;2023-02-15T07:20:22;-1.40;99.90
4207;DHT22;2117;47.972;7.830;2023-02-15T07:22:49;-1.40;99.90
4207;DHT22;2117;47.972;7.830;2023-02-15T07:25:15;-1.30;99.90
4207;DHT22;2117;47.972;7.830;2023-02-15T07:27:41;-1.30;99.90
4207;DHT22;2117;47.972;7.830;2023-02-15T07:30:09;-1.20;99.90
4207;DHT22;2117;47.972;7.830;2023-02-15T07:32:35;-1.20;99.90
4207;DHT22;2117;47.972;7.830;2023-02-15T07:35:00;-1.20;99.90
4207;DHT22;2117;47.972;7.830;2023-02-15T07:37:27;-1.20;99.90
4207;DHT22;2117;47.972;7.830;2023-02-15T07:39:52;-1.20;99.90
4207;DHT22;2117;47.972;7.830;2023-02-15T07:42:18;-1.20;99.90
4207;DHT22;2117;47.972;7.830;2023-02-15T07:44:45;-1.10;99.90
4207;DHT22;2117;47.972;7.830;2023-02-15T07:47:10;-1.10;99.90
4207;DHT22;2117;47.972;7.830;2023-02-15T07:49:37;-1.10;99.90
4207;DHT22;2117;47.972;7.830;2023-02-15T07:52:04;-1.00;99.90
4207;DHT22;2117;47.972;7.830;2023-02-15T07:54:30;-1.00;99.90
4207;DHT22;2117;47.972;7.830;2023-02-15T07:56:56;-1.00;99.90
4207;DHT22;2117;47.972;7.830;2023-02-15T07:59:21;-1.00;99.90
4207;DHT22;2117;47.972;7.830;2023-02-15T08:01:47;-1.00;99.90
4207;DHT22;2117;47.972;7.830;2023-02-15T08:04:12;-1.00;99.90
4207;DHT22;2117;47.972;7.830;2023-02-15T08:06:38;-1.00;99.90
4207;DHT22;2117;47.972;7.830;2023-02-15T08:09:06;-1.00;99.90
4207;DHT22;2117;47.972;7.830;2023-02-15T08:11:34;-0.90;99.90
4207;DHT22;2117;47.972;7.830;2023-02-15T08:14:11;-0.80;99.90
4207;DHT22;2117;47.972;7.830;2023-02-15T08:21:41;-0.70;99.90
4207;DHT22;2117;47.972;7.830;2023-02-15T08:24:08;-0.40;99.90
4207;DHT22;2117;47.972;7.830;2023-02-15T08:26:34;-0.40;99.90
4207;DHT22;2117;47.972;7.830;2023-02-15T08:29:00;-0.30;99.90
4207;DHT22;2117;47.972;7.830;2023-02-15T08:31:27;-0.10;99.90
4207;DHT22;2117;47.972;7.830;2023-02-15T08:33:54;0.10;99.90
4207;DHT22;2117;47.972;7.830;2023-02-15T08:36:22;0.20;99.90
4207;DHT22;2117;47.972;7.830;2023-02-15T08:38:48;0.30;99.90
4207;DHT22;2117;47.972;7.830;2023-02-15T08:41:18;0.40;99.90
4207;DHT22;2117;47.972;7.830;2023-02-15T08:43:45;0.40;99.90
4207;DHT22;2117;47.972;7.830;2023-02-15T08:46:12;0.50;99.90
4207;DHT22;2117;47.972;7.830;2023-02-15T08:48:38;0.60;99.90
4207;DHT22;2117;47.972;7.830;2023-02-15T08:51:09;0.60;99.90
4207;DHT22;2117;47.972;7.830;2023-02-15T08:53:37;0.70;99.90
4207;DHT22;2117;47.972;7.830;2023-02-15T08:56:02;0.80;99.90
4207;DHT22;2117;47.972;7.830;2023-02-15T08:58:29;0.90;99.90
4207;DHT22;2117;47.972;7.830;2023-02-15T09:00:56;0.80;99.90
4207;DHT22;2117;47.972;7.830;2023-02-15T09:03:22;0.80;99.90
4207;DHT22;2117;47.972;7.830;2023-02-15T09:05:47;0.80;99.90
4207;DHT22;2117;47.972;7.830;2023-02-15T09:08:13;0.80;99.90
4207;DHT22;2117;47.972;7.830;2023-02-15T09:10:38;0.90;99.90
4207;DHT22;2117;47.972;7.830;2023-02-15T09:13:04;0.90;99.90
4207;DHT22;2117;47.972;7.830;2023-02-15T09:15:29;1.00;99.90
4207;DHT22;2117;47.972;7.830;2023-02-15T09:17:55;1.10;99.90
4207;DHT22;2117;47.972;7.830;2023-02-15T09:20:21;1.10;99.90
4207;DHT22;2117;47.972;7.830;2023-02-15T09:22:47;1.20;99.90
4207;DHT22;2117;47.972;7.830;2023-02-15T09:25:13;1.30;99.90
4207;DHT22;2117;47.972;7.830;2023-02-15T09:27:39;1.40;99.90
4207;DHT22;2117;47.972;7.830;2023-02-15T09:30:05;1.50;99.90
4207;DHT22;2117;47.972;7.830;2023-02-15T09:32:31;1.60;99.90
4207;DHT22;2117;47.972;7.830;2023-02-15T09:34:56;1.70;99.90
4207;DHT22;2117;47.972;7.830;2023-02-15T09:37:22;1.60;99.90
4207;DHT22;2117;47.972;7.830;2023-02-15T09:39:48;1.70;99.90
4207;DHT22;2117;47.972;7.830;2023-02-15T09:56:09;1.60;99.90
4207;DHT22;2117;47.972;7.830;2023-02-15T10:07:16;1.90;99.90
4207;DHT22;2117;47.972;7.830;2023-02-15T10:16:15;2.00;99.90
4207;DHT22;2117;47.972;7.830;2023-02-15T10:19:29;2.10;99.90
4207;DHT22;2117;47.972;7.830;2023-02-15T10:22:28;2.50;99.90
4207;DHT22;2117;47.972;7.830;2023-02-15T10:25:07;2.70;99.90
4207;DHT22;2117;47.972;7.830;2023-02-15T10:27:46;2.80;99.90
4207;DHT22;2117;47.972;7.830;2023-02-15T10:32:56;2.80;99.90
4207;DHT22;2117;47.972;7.830;2023-02-15T10:38:21;2.60;99.90
4207;DHT22;2117;47.972;7.830;2023-02-15T10:41:21;2.60;99.90
4207;DHT22;2117;47.972;7.830;2023-02-15T10:44:14;2.70;99.90
4207;DHT22;2117;47.972;7.830;2023-02-15T10:50:01;2.90;99.90
4207;DHT22;2117;47.972;7.830;2023-02-15T10:55:21;2.90;99.90
4207;DHT22;2117;47.972;7.830;2023-02-15T11:03:48;3.00;99.90
4207;DHT22;2117;47.972;7.830;2023-02-15T11:06:18;3.00;99.90
4207;DHT22;2117;47.972;7.830;2023-02-15T11:08:57;3.10;99.90
4207;DHT22;2117;47.972;7.830;2023-02-15T11:11:29;3.10;99.90
4207;DHT22;2117;47.972;7.830;2023-02-15T11:14:05;3.30;99.90
4207;DHT22;2117;47.972;7.830;2023-02-15T11:16:38;3.30;99.90
4207;DHT22;2117;47.972;7.830;2023-02-15T11:19:19;3.40;99.90
4207;DHT22;2117;47.972;7.830;2023-02-15T11:21:50;3.50;99.90
4207;DHT22;2117;47.972;7.830;2023-02-15T11:24:19;3.60;99.90
4207;DHT22;2117;47.972;7.830;2023-02-15T11:29:28;3.60;99.90
4207;DHT22;2117;47.972;7.830;2023-02-15T11:35:01;3.90;99.90
4207;DHT22;2117;47.972;7.830;2023-02-15T11:37:33;4.00;99.90
4207;DHT22;2117;47.972;7.830;2023-02-15T11:40:01;4.10;99.90
4207;DHT22;2117;47.972;7.830;2023-02-15T11:42:30;4.20;99.90
4207;DHT22;2117;47.972;7.830;2023-02-15T11:45:04;4.30;99.90
4207;DHT22;2117;47.972;7.830;2023-02-15T11:47:31;4.40;99.90
4207;DHT22;2117;47.972;7.830;2023-02-15T11:49:57;4.70;99.90
4207;DHT22;2117;47.972;7.830;2023-02-15T11:52:23;4.70;99.90
4207;DHT22;2117;47.972;7.830;2023-02-15T11:54:50;4.90;99.90
4207;DHT22;2117;47.972;7.830;2023-02-15T11:57:23;5.00;99.90
4207;DHT22;2117;47.972;7.830;2023-02-15T11:59:56;5.20;99.90
4207;DHT22;2117;47.972;7.830;2023-02-15T12:02:22;5.40;99.90
4207;DHT22;2117;47.972;7.830;2023-02-15T12:04:58;5.60;99.90
4207;DHT22;2117;47.972;7.830;2023-02-15T12:07:30;5.80;99.90
4207;DHT22;2117;47.972;7.830;2023-02-15T12:10:28;6.20;99.90
4207;DHT22;2117;47.972;7.830;2023-02-15T12:13:13;6.60;99.90
4207;DHT22;2117;47.972;7.830;2023-02-15T12:15:48;7.00;99.90
4207;DHT22;2117;47.972;7.830;2023-02-15T12:18:36;7.30;99.90
4207;DHT22;2117;47.972;7.830;2023-02-15T12:21:08;7.70;99.90
4207;DHT22;2117;47.972;7.830;2023-02-15T12:23:39;8.10;99.90
4207;DHT22;2117;47.972;7.830;2023-02-15T12:26:06;8.30;99.90
4207;DHT22;2117;47.972;7.830;2023-02-15T12:28:34;8.50;99.90
4207;DHT22;2117;47.972;7.830;2023-02-15T12:31:02;8.80;99.90
4207;DHT22;2117;47.972;7.830;2023-02-15T12:33:32;9.30;99.90
4207;DHT22;2117;47.972;7.830;2023-02-15T12:36:18;9.40;99.90
4207;DHT22;2117;47.972;7.830;2023-02-15T12:39:03;9.70;99.90
4207;DHT22;2117;47.972;7.830;2023-02-15T12:41:30;10.10;99.90
4207;DHT22;2117;47.972;7.830;2023-02-15T12:44:19;10.40;99.90
4207;DHT22;2117;47.972;7.830;2023-02-15T12:49:30;10.60;99.90
4207;DHT22;2117;47.972;7.830;2023-02-15T12:51:58;10.70;99.90
4207;DHT22;2117;47.972;7.830;2023-02-15T12:56:57;10.70;99.90
4207;DHT22;2117;47.972;7.830;2023-02-15T12:59:23;11.10;99.90
4207;DHT22;2117;47.972;7.830;2023-02-15T13:01:50;11.30;99.90
4207;DHT22;2117;47.972;7.830;2023-02-15T13:04:24;11.80;99.90
4207;DHT22;2117;47.972;7.830;2023-02-15T13:06:57;11.80;99.90
4207;DHT22;2117;47.972;7.830;2023-02-15T13:14:36;12.40;99.90
4207;DHT22;2117;47.972;7.830;2023-02-15T13:17:04;12.60;99.90
4207;DHT22;2117;47.972;7.830;2023-02-15T13:19:51;12.90;99.90
4207;DHT22;2117;47.972;7.830;2023-02-15T13:22:23;13.40;99.90
4207;DHT22;2117;47.972;7.830;2023-02-15T13:24:54;13.20;99.90
4207;DHT22;2117;47.972;7.830;2023-02-15T13:27:26;13.20;99.90
4207;DHT22;2117;47.972;7.830;2023-02-15T13:29:57;13.40;99.90
4207;DHT22;2117;47.972;7.830;2023-02-15T13:32:38;13.80;99.90
4207;DHT22;2117;47.972;7.830;2023-02-15T13:35:10;14.10;99.90
4207;DHT22;2117;47.972;7.830;2023-02-15T13:40:58;14.80;99.90
4207;DHT22;2117;47.972;7.830;2023-02-15T13:46:39;15.10;99.90
4207;DHT22;2117;47.972;7.830;2023-02-15T13:49:32;15.20;99.90
4207;DHT22;2117;47.972;7.830;2023-02-15T13:52:20;15.00;99.90
4207;DHT22;2117;47.972;7.830;2023-02-15T14:00:44;15.60;99.90
4207;DHT22;2117;47.972;7.830;2023-02-15T14:09:30;15.90;99.90
4207;DHT22;2117;47.972;7.830;2023-02-15T14:20:45;16.50;99.90
4207;DHT22;2117;47.972;7.830;2023-02-15T14:26:10;16.80;99.90
4207;DHT22;2117;47.972;7.830;2023-02-15T14:31:13;16.80;99.90
4207;DHT22;2117;47.972;7.830;2023-02-15T14:33:47;16.90;99.90
4207;DHT22;2117;47.972;7.830;2023-02-15T14:36:18;16.90;99.90
4207;DHT22;2117;47.972;7.830;2023-02-15T14:44:31;16.50;99.90
4207;DHT22;2117;47.972;7.830;2023-02-15T14:47:16;16.50;99.90
4207;DHT22;2117;47.972;7.830;2023-02-15T14:49:44;16.40;99.90
4207;DHT22;2117;47.972;7.830;2023-02-15T14:52:10;16.40;99.90
4207;DHT22;2117;47.972;7.830;2023-02-15T14:59:49;16.40;99.90
4207;DHT22;2117;47.972;7.830;2023-02-15T15:05:11;16.20;99.90
4207;DHT22;2117;47.972;7.830;2023-02-15T15:07:54;16.10;99.90
4207;DHT22;2117;47.972;7.830;2023-02-15T15:12:50;16.00;99.90
4207;DHT22;2117;47.972;7.830;2023-02-15T15:18:04;15.60;99.90
4207;DHT22;2117;47.972;7.830;2023-02-15T15:20:45;15.10;99.90
4207;DHT22;2117;47.972;7.830;2023-02-15T15:25:52;14.50;99.90
4207;DHT22;2117;47.972;7.830;2023-02-15T15:31:32;13.80;99.90
4207;DHT22;2117;47.972;7.830;2023-02-15T15:40:19;12.80;99.90
4207;DHT22;2117;47.972;7.830;2023-02-15T15:45:52;12.10;99.90
4207;DHT22;2117;47.972;7.830;2023-02-15T15:50:53;11.70;99.90
4207;DHT22;2117;47.972;7.830;2023-02-15T15:53:23;11.50;99.90
4207;DHT22;2117;47.972;7.830;2023-02-15T15:56:03;11.40;99.90
4207;DHT22;2117;47.972;7.830;2023-02-15T15:58:30;11.20;99.90
4207;DHT22;2117;47.972;7.830;2023-02-15T16:01:10;10.90;99.90
4207;DHT22;2117;47.972;7.830;2023-02-15T16:03:47;10.70;99.90
4207;DHT22;2117;47.972;7.830;2023-02-15T16:06:27;10.60;99.90
4207;DHT22;2117;47.972;7.830;2023-02-15T16:08:53;10.50;99.90
4207;DHT22;2117;47.972;7.830;2023-02-15T16:11:23;10.20;99.90
4207;DHT22;2117;47.972;7.830;2023-02-15T16:13:49;10.10;99.90
4207;DHT22;2117;47.972;7.830;2023-02-15T16:16:24;10.00;99.90
4207;DHT22;2117;47.972;7.830;2023-02-15T16:18:51;9.90;99.90
4207;DHT22;2117;47.972;7.830;2023-02-15T16:21:23;9.80;99.90
4207;DHT22;2117;47.972;7.830;2023-02-15T16:24:04;9.60;99.90
4207;DHT22;2117;47.972;7.830;2023-02-15T16:26:44;9.50;99.90
4207;DHT22;2117;47.972;7.830;2023-02-15T16:29:16;9.40;99.90
4207;DHT22;2117;47.972;7.830;2023-02-15T16:31:42;9.30;99.90
4207;DHT22;2117;47.972;7.830;2023-02-15T16:34:17;9.00;99.90
4207;DHT22;2117;47.972;7.830;2023-02-15T16:36:43;9.00;99.90
4207;DHT22;2117;47.972;7.830;2023-02-15T16:39:18;8.90;99.90
4207;DHT22;2117;47.972;7.830;2023-02-15T16:41:45;8.80;99.90
4207;DHT22;2117;47.972;7.830;2023-02-15T16:44:17;8.60;99.90
4207;DHT22;2117;47.972;7.830;2023-02-15T16:46:47;8.60;99.90
4207;DHT22;2117;47.972;7.830;2023-02-15T16:49:20;8.40;99.90
4207;DHT22;2117;47.972;7.830;2023-02-15T16:51:55;8.30;99.90
4207;DHT22;2117;47.972;7.830;2023-02-15T16:54:22;8.20;99.90
4207;DHT22;2117;47.972;7.830;2023-02-15T16:56:49;8.10;99.90
4207;DHT22;2117;47.972;7.830;2023-02-15T16:59:36;8.00;99.90
4207;DHT22;2117;47.972;7.830;2023-02-15T17:02:06;7.80;99.90
4207;DHT22;2117;47.972;7.830;2023-02-15T17:04:36;7.70;99.90
4207;DHT22;2117;47.972;7.830;2023-02-15T17:07:15;7.60;99.90
4207;DHT22;2117;47.972;7.830;2023-02-15T17:09:52;7.50;99.90
4207;DHT22;2117;47.972;7.830;2023-02-15T17:12:47;7.50;99.90
4207;DHT22;2117;47.972;7.830;2023-02-15T17:15:36;7.40;99.90
4207;DHT22;2117;47.972;7.830;2023-02-15T17:18:05;7.20;99.90
4207;DHT22;2117;47.972;7.830;2023-02-15T17:20:34;7.10;99.90
4207;DHT22;2117;47.972;7.830;2023-02-15T17:23:03;7.00;99.90
4207;DHT22;2117;47.972;7.830;2023-02-15T17:25:36;6.90;99.90
4207;DHT22;2117;47.972;7.830;2023-02-15T17:28:03;6.70;99.90
4207;DHT22;2117;47.972;7.830;2023-02-15T17:30:34;6.60;99.90
4207;DHT22;2117;47.972;7.830;2023-02-15T17:33:04;6.50;99.90
4207;DHT22;2117;47.972;7.830;2023-02-15T17:35:43;6.40;99.90
4207;DHT22;2117;47.972;7.830;2023-02-15T17:38:20;6.30;99.90
4207;DHT22;2117;47.972;7.830;2023-02-15T17:40:45;6.20;99.90
4207;DHT22;2117;47.972;7.830;2023-02-15T17:43:11;6.20;99.90
4207;DHT22;2117;47.972;7.830;2023-02-15T17:45:44;6.10;99.90
4207;DHT22;2117;47.972;7.830;2023-02-15T17:48:20;6.00;99.90
4207;DHT22;2117;47.972;7.830;2023-02-15T17:50:46;6.00;99.90
4207;DHT22;2117;47.972;7.830;2023-02-15T17:53:16;5.90;99.90
4207;DHT22;2117;47.972;7.830;2023-02-15T17:55:43;5.80;99.90
4207;DHT22;2117;47.972;7.830;2023-02-15T17:58:13;5.80;99.90
4207;DHT22;2117;47.972;7.830;2023-02-15T18:00:42;5.80;99.90
4207;DHT22;2117;47.972;7.830;2023-02-15T18:03:40;5.70;99.90
4207;DHT22;2117;47.972;7.830;2023-02-15T18:06:25;5.60;99.90
4207;DHT22;2117;47.972;7.830;2023-02-15T18:09:11;5.50;99.90
4207;DHT22;2117;47.972;7.830;2023-02-15T18:11:56;5.40;99.90
4207;DHT22;2117;47.972;7.830;2023-02-15T18:14:22;5.30;99.90
4207;DHT22;2117;47.972;7.830;2023-02-15T18:16:48;5.30;99.90
4207;DHT22;2117;47.972;7.830;2023-02-15T18:19:19;5.20;99.90
4207;DHT22;2117;47.972;7.830;2023-02-15T18:21:45;5.20;99.90
4207;DHT22;2117;47.972;7.830;2023-02-15T18:24:23;5.10;99.90
4207;DHT22;2117;47.972;7.830;2023-02-15T18:26:50;5.10;99.90
4207;DHT22;2117;47.972;7.830;2023-02-15T18:29:16;5.00;99.90
4207;DHT22;2117;47.972;7.830;2023-02-15T18:31:43;5.00;99.90
4207;DHT22;2117;47.972;7.830;2023-02-15T18:34:21;4.90;99.90
4207;DHT22;2117;47.972;7.830;2023-02-15T18:36:48;4.90;99.90
4207;DHT22;2117;47.972;7.830;2023-02-15T18:39:36;4.80;99.90
4207;DHT22;2117;47.972;7.830;2023-02-15T18:42:05;4.80;99.90
4207;DHT22;2117;47.972;7.830;2023-02-15T18:44:31;4.70;99.90
4207;DHT22;2117;47.972;7.830;2023-02-15T18:46:56;4.70;99.90
4207;DHT22;2117;47.972;7.830;2023-02-15T18:49:22;4.70;99.90
4207;DHT22;2117;47.972;7.830;2023-02-15T18:51:48;4.70;99.90
4207;DHT22;2117;47.972;7.830;2023-02-15T18:54:19;4.70;99.90
4207;DHT22;2117;47.972;7.830;2023-02-15T18:56:50;4.70;99.90
4207;DHT22;2117;47.972;7.830;2023-02-15T18:59:17;4.70;99.90
4207;DHT22;2117;47.972;7.830;2023-02-15T19:01:43;4.60;99.90
4207;DHT22;2117;47.972;7.830;2023-02-15T19:04:09;4.40;99.90
4207;DHT22;2117;47.972;7.830;2023-02-15T19:06:35;4.50;99.90
4207;DHT22;2117;47.972;7.830;2023-02-15T19:09:01;4.50;99.90
4207;DHT22;2117;47.972;7.830;2023-02-15T19:11:27;4.40;99.90
4207;DHT22;2117;47.972;7.830;2023-02-15T19:13:53;4.40;99.90
4207;DHT22;2117;47.972;7.830;2023-02-15T19:18:53;4.30;99.90
4207;DHT22;2117;47.972;7.830;2023-02-15T19:21:18;4.30;99.90
4207;DHT22;2117;47.972;7.830;2023-02-15T19:23:49;4.30;99.90
4207;DHT22;2117;47.972;7.830;2023-02-15T19:26:16;4.20;99.90
4207;DHT22;2117;47.972;7.830;2023-02-15T19:28:41;4.20;99.90
4207;DHT22;2117;47.972;7.830;2023-02-15T19:31:10;4.10;99.90
4207;DHT22;2117;47.972;7.830;2023-02-15T19:33:37;4.10;99.90
4207;DHT22;2117;47.972;7.830;2023-02-15T19:36:05;4.10;99.90
4207;DHT22;2117;47.972;7.830;2023-02-15T19:38:32;4.10;99.90
4207;DHT22;2117;47.972;7.830;2023-02-15T19:41:04;4.10;99.90
4207;DHT22;2117;47.972;7.830;2023-02-15T19:43:31;4.00;99.90
4207;DHT22;2117;47.972;7.830;2023-02-15T19:45:56;4.00;99.90
4207;DHT22;2117;47.972;7.830;2023-02-15T19:48:22;4.00;99.90
4207;DHT22;2117;47.972;7.830;2023-02-15T19:50:48;4.00;99.90
4207;DHT22;2117;47.972;7.830;2023-02-15T19:53:20;4.00;99.90
4207;DHT22;2117;47.972;7.830;2023-02-15T19:55:47;4.00;99.90
4207;DHT22;2117;47.972;7.830;2023-02-15T19:58:13;3.90;99.90
4207;DHT22;2117;47.972;7.830;2023-02-15T20:00:39;3.80;99.90
4207;DHT22;2117;47.972;7.830;2023-02-15T20:03:04;3.80;99.90
4207;DHT22;2117;47.972;7.830;2023-02-15T20:05:31;3.80;99.90
4207;DHT22;2117;47.972;7.830;2023-02-15T20:08:00;3.80;99.90
4207;DHT22;2117;47.972;7.830;2023-02-15T20:10:30;3.80;99.90
4207;DHT22;2117;47.972;7.830;2023-02-15T20:12:56;3.80;99.90
4207;DHT22;2117;47.972;7.830;2023-02-15T20:15:24;3.80;99.90
4207;DHT22;2117;47.972;7.830;2023-02-15T20:17:52;3.70;99.90
4207;DHT22;2117;47.972;7.830;2023-02-15T20:20:18;3.60;99.90
4207;DHT22;2117;47.972;7.830;2023-02-15T20:22:46;3.60;99.90
4207;DHT22;2117;47.972;7.830;2023-02-15T20:25:19;3.60;99.90
4207;DHT22;2117;47.972;7.830;2023-02-15T20:27:45;3.60;99.90
4207;DHT22;2117;47.972;7.830;2023-02-15T20:30:18;3.50;99.90
4207;DHT22;2117;47.972;7.830;2023-02-15T20:32:44;3.50;99.90
4207;DHT22;2117;47.972;7.830;2023-02-15T20:35:17;3.50;99.90
4207;DHT22;2117;47.972;7.830;2023-02-15T20:37:48;3.40;99.90
4207;DHT22;2117;47.972;7.830;2023-02-15T20:40:25;3.30;99.90
4207;DHT22;2117;47.972;7.830;2023-02-15T20:42:51;3.20;99.90
4207;DHT22;2117;47.972;7.830;2023-02-15T20:45:25;3.20;99.90
4207;DHT22;2117;47.972;7.830;2023-02-15T20:47:52;3.20;99.90
4207;DHT22;2117;47.972;7.830;2023-02-15T20:50:23;3.30;99.90
4207;DHT22;2117;47.972;7.830;2023-02-15T20:52:50;3.30;99.90
4207;DHT22;2117;47.972;7.830;2023-02-15T20:55:20;3.20;99.90
4207;DHT22;2117;47.972;7.830;2023-02-15T20:57:46;3.20;99.90
4207;DHT22;2117;47.972;7.830;2023-02-15T21:00:17;3.20;99.90
4207;DHT22;2117;47.972;7.830;2023-02-15T21:02:48;3.20;99.90
4207;DHT22;2117;47.972;7.830;2023-02-15T21:05:23;3.20;99.90
4207;DHT22;2117;47.972;7.830;2023-02-15T21:07:50;3.20;99.90
4207;DHT22;2117;47.972;7.830;2023-02-15T21:10:19;3.20;99.90
4207;DHT22;2117;47.972;7.830;2023-02-15T21:12:48;3.10;99.90
4207;DHT22;2117;47.972;7.830;2023-02-15T21:17:51;3.10;99.90
4207;DHT22;2117;47.972;7.830;2023-02-15T21:20:17;3.10;99.90
4207;DHT22;2117;47.972;7.830;2023-02-15T21:22:43;3.00;99.90
4207;DHT22;2117;47.972;7.830;2023-02-15T21:25:20;3.00;99.90
4207;DHT22;2117;47.972;7.830;2023-02-15T21:27:47;3.00;99.90
4207;DHT22;2117;47.972;7.830;2023-02-15T21:30:14;3.00;99.90
4207;DHT22;2117;47.972;7.830;2023-02-15T21:32:40;3.10;99.90
4207;DHT22;2117;47.972;7.830;2023-02-15T21:35:06;3.00;99.90
4207;DHT22;2117;47.972;7.830;2023-02-15T21:37:34;2.90;99.90
4207;DHT22;2117;47.972;7.830;2023-02-15T21:40:01;2.90;99.90